Enaville, Idaho
Current Conditions -  °F | °C
As of 12:15 PM on Thursday 23 Oct 2014 (Local Time) from KCOE Reporting Station
Overcast Overcast  
Wind Chill: 52°   Ceiling: 3300
Heat Index: 52°   Visibility: 10mi
Dew Point: 48°   Wind: 8mph
Humidity: 88%   Direction: 160°SSE
Pressure: 29.78"   Gusts: NA
Location:  47.5619°N, 116.294°W
Report Text: KCOE 231915Z AUTO 16007KT 10SM FEW027 BKN033 OVC041 11/09 A2978 RMK AO1
Loading
Personal Weather Stations






























Interactive Weather Map
Tropical Storm Tracking
New forecast layout! Learn more

10-Day Weather Forecast

Advertisements
Track Severe Weather on mobile